Time;durP1;ratioP1;P1;durP2;ratioP2;P2;SDS_P1;SDS_P2;PMS_P1;PMS_P2;Temp;Humidity;BMP_temperature;BMP_pressure;BME280_temperature;BME280_humidity;BME280_pressure;Samples;Min_cycle;Max_cycle;Signal;HPM_P1;HPM_P2
2023/06/20 00:00:33;;;;;;;;;;;24.60;51.00;;;;;;5093601;28;19971;-62
2023/06/20 00:02:59;;;;;;;;;;;24.50;51.00;;;;;;5075293;28;19924;-62
2023/06/20 00:05:24;;;;;;;;;;;24.50;51.00;;;;;;5092272;28;19920;-62
2023/06/20 00:07:50;;;;;;;;;;;24.50;51.00;;;;;;5075225;28;19924;-62
2023/06/20 00:10:15;;;;;;;;;;;24.50;51.00;;;;;;5093335;28;20371;-62
2023/06/20 00:12:41;;;;;;;;;;;24.50;51.00;;;;;;5092039;28;19920;-62
2023/06/20 00:15:07;;;;;;;;;;;24.50;51.10;;;;;;5075496;28;19920;-62
2023/06/20 00:17:32;;;;;;;;;;;24.50;51.10;;;;;;5092016;28;19931;-63
2023/06/20 00:19:58;;;;;;;;;;;24.50;51.00;;;;;;5093463;28;20007;-62
2023/06/20 00:22:23;;;;;;;;;;;24.50;51.10;;;;;;5091995;28;20379;-62
2023/06/20 00:24:48;;;;;;;;;;;24.50;51.00;;;;;;5074934;28;19919;-61
2023/06/20 00:27:14;;;;;;;;;;;24.50;51.10;;;;;;5093216;28;20069;-62
2023/06/20 00:29:39;;;;;;;;;;;24.50;51.10;;;;;;5091754;28;19924;-63
2023/06/20 00:32:05;;;;;;;;;;;24.40;51.00;;;;;;5075109;28;19920;-62
2023/06/20 00:34:31;;;;;;;;;;;24.50;51.10;;;;;;5093413;28;20024;-62
2023/06/20 00:36:57;;;;;;;;;;;24.50;51.20;;;;;;5075033;28;20325;-62
2023/06/20 00:39:22;;;;;;;;;;;24.40;51.10;;;;;;5092945;28;19949;-62
2023/06/20 00:41:49;;;;;;;;;;;24.40;51.10;;;;;;5074914;28;19924;-61
2023/06/20 00:44:14;;;;;;;;;;;24.40;51.10;;;;;;5093002;28;20335;-62
2023/06/20 00:46:41;;;;;;;;;;;24.40;51.10;;;;;;5092811;28;20020;-62
2023/06/20 00:49:07;;;;;;;;;;;24.40;51.10;;;;;;5074495;28;20015;-62
2023/06/20 00:51:33;;;;;;;;;;;24.40;51.10;;;;;;5092930;28;20282;-62
2023/06/20 00:53:59;;;;;;;;;;;24.40;51.10;;;;;;5058122;28;19920;-62
2023/06/20 00:56:26;;;;;;;;;;;24.40;51.10;;;;;;5074615;28;19920;-62
2023/06/20 00:58:52;;;;;;;;;;;24.40;51.10;;;;;;5092368;28;20388;-62
2023/06/20 01:01:18;;;;;;;;;;;24.40;51.10;;;;;;5074691;28;19923;-62
2023/06/20 01:03:46;;;;;;;;;;;24.40;51.20;;;;;;5092509;28;20436;-62
2023/06/20 01:06:22;;;;;;;;;;;24.40;51.20;;;;;;5092490;28;19962;-62
2023/06/20 01:08:54;;;;;;;;;;;24.40;51.10;;;;;;5074223;28;19924;-62
2023/06/20 01:14:22;;;;;;;;;;;24.30;51.20;;;;;;5110364;27;19919;-62
2023/06/20 01:17:08;;;;;;;;;;;24.30;51.90;;;;;;5091752;28;19920;-62
2023/06/20 01:19:53;;;;;;;;;;;24.30;51.20;;;;;;5092166;28;19924;-61
2023/06/20 01:22:39;;;;;;;;;;;24.30;51.30;;;;;;5091736;28;19920;-61
2023/06/20 01:25:08;;;;;;;;;;;24.30;51.20;;;;;;5109764;28;19920;-61
2023/06/20 01:27:38;;;;;;;;;;;24.30;51.40;;;;;;5091994;28;20010;-62
2023/06/20 01:30:08;;;;;;;;;;;24.30;51.40;;;;;;5091770;28;19920;-61
2023/06/20 01:32:37;;;;;;;;;;;24.30;51.40;;;;;;5108716;28;20001;-62
2023/06/20 01:35:07;;;;;;;;;;;24.30;51.40;;;;;;5108630;28;19927;-62
2023/06/20 01:37:34;;;;;;;;;;;24.30;51.40;;;;;;5091756;28;19920;-61
2023/06/20 01:40:00;;;;;;;;;;;24.30;51.50;;;;;;5091781;28;19920;-62
2023/06/20 01:42:26;;;;;;;;;;;24.30;51.60;;;;;;5091426;28;19920;-61
2023/06/20 01:44:54;;;;;;;;;;;24.30;51.60;;;;;;5108795;28;19920;-61
2023/06/20 01:47:21;;;;;;;;;;;24.30;51.50;;;;;;5091336;28;20071;-62
2023/06/20 01:49:47;;;;;;;;;;;24.30;51.60;;;;;;5108656;28;19919;-61
2023/06/20 01:52:15;;;;;;;;;;;24.20;51.60;;;;;;5091134;28;19924;-61
2023/06/20 01:54:41;;;;;;;;;;;24.20;51.60;;;;;;5108236;28;19927;-62
2023/06/20 01:57:07;;;;;;;;;;;24.20;51.50;;;;;;5109362;28;19920;-62
2023/06/20 01:59:33;;;;;;;;;;;24.20;51.60;;;;;;5091424;28;19969;-61
2023/06/20 02:01:58;;;;;;;;;;;24.20;52.40;;;;;;5108135;28;19920;-61
2023/06/20 02:04:25;;;;;;;;;;;24.20;51.60;;;;;;5091305;28;19930;-62
2023/06/20 02:06:50;;;;;;;;;;;24.20;51.60;;;;;;5090885;28;19920;-61
2023/06/20 02:09:17;;;;;;;;;;;24.20;51.60;;;;;;5091299;28;19927;-62
2023/06/20 02:11:43;;;;;;;;;;;24.20;51.60;;;;;;5108912;28;20389;-62
2023/06/20 02:14:09;;;;;;;;;;;24.20;51.70;;;;;;5090934;28;19953;-61
2023/06/20 02:16:35;;;;;;;;;;;24.20;51.80;;;;;;5108097;28;20373;-62
2023/06/20 02:19:01;;;;;;;;;;;24.20;51.70;;;;;;5091064;28;19920;-62
2023/06/20 02:21:28;;;;;;;;;;;24.20;51.70;;;;;;5090681;28;19927;-63
2023/06/20 02:23:54;;;;;;;;;;;24.20;51.70;;;;;;5085645;28;20275;-61
2023/06/20 02:26:24;;;;;;;;;;;24.10;51.70;;;;;;5094087;28;19924;-62
2023/06/20 02:28:51;;;;;;;;;;;24.10;51.60;;;;;;5077305;28;19923;-61
2023/06/20 02:31:18;;;;;;;;;;;24.10;51.60;;;;;;5095242;28;20374;-62
2023/06/20 02:33:44;;;;;;;;;;;24.10;51.70;;;;;;5076926;28;19924;-62
2023/06/20 02:36:10;;;;;;;;;;;24.10;51.70;;;;;;5077460;28;19920;-61
2023/06/20 02:38:36;;;;;;;;;;;24.10;51.70;;;;;;5076847;28;19920;-61
2023/06/20 02:41:03;;;;;;;;;;;24.10;51.70;;;;;;5077209;28;19927;-62
2023/06/20 02:43:28;;;;;;;;;;;24.10;51.70;;;;;;5076853;28;19926;-62
2023/06/20 02:46:00;;;;;;;;;;;24.10;51.70;;;;;;5095047;28;19928;-61
2023/06/20 02:48:29;;;;;;;;;;;24.10;51.70;;;;;;5094867;28;19931;-61
2023/06/20 02:51:14;;;;;;;;;;;24.10;51.90;;;;;;5094860;28;20306;-61
2023/06/20 02:53:44;;;;;;;;;;;24.10;52.00;;;;;;5076663;28;20026;-61
2023/06/20 02:56:10;;;;;;;;;;;24.10;52.20;;;;;;5077012;28;19973;-61
2023/06/20 02:58:37;;;;;;;;;;;24.10;52.00;;;;;;5094665;28;19921;-61
2023/06/20 03:01:03;;;;;;;;;;;24.10;51.90;;;;;;5076523;28;19920;-61
2023/06/20 03:03:33;;;;;;;;;;;24.10;52.10;;;;;;5076627;28;19943;-61
2023/06/20 03:05:58;;;;;;;;;;;24.00;51.90;;;;;;5076412;28;20367;-62
2023/06/20 03:08:26;;;;;;;;;;;24.10;52.10;;;;;;5076382;28;19927;-61
2023/06/20 03:10:53;;;;;;;;;;;24.00;52.10;;;;;;5076609;28;20397;-61
2023/06/20 03:13:20;;;;;;;;;;;24.00;52.10;;;;;;5094098;28;19931;-61
2023/06/20 03:15:45;;;;;;;;;;;24.10;52.20;;;;;;5076105;28;19924;-61
2023/06/20 03:18:12;;;;;;;;;;;24.00;52.10;;;;;;5076488;28;19920;-61
2023/06/20 03:20:37;;;;;;;;;;;24.00;52.10;;;;;;5076111;28;20370;-61
2023/06/20 03:23:03;;;;;;;;;;;24.00;52.20;;;;;;5076113;28;20011;-61
2023/06/20 03:25:28;;;;;;;;;;;24.00;52.20;;;;;;5076262;28;19998;-61
2023/06/20 03:27:53;;;;;;;;;;;24.00;52.10;;;;;;5076196;28;20115;-60
2023/06/20 03:30:19;;;;;;;;;;;24.00;53.00;;;;;;5093100;28;19967;-61
2023/06/20 03:32:44;;;;;;;;;;;24.00;52.20;;;;;;5094062;28;19928;-62
2023/06/20 03:35:10;;;;;;;;;;;24.00;52.40;;;;;;5093288;28;20401;-61
2023/06/20 03:37:36;;;;;;;;;;;24.00;52.30;;;;;;5092437;28;20018;-61
2023/06/20 03:40:01;;;;;;;;;;;24.00;52.40;;;;;;5076119;28;20282;-61
2023/06/20 03:42:29;;;;;;;;;;;24.00;52.30;;;;;;5094113;28;20321;-62
2023/06/20 03:44:55;;;;;;;;;;;24.00;53.20;;;;;;5093797;28;19977;-61
2023/06/20 03:47:20;;;;;;;;;;;23.90;52.40;;;;;;5076167;28;20010;-61
2023/06/20 03:49:46;;;;;;;;;;;24.00;52.40;;;;;;5075682;28;19920;-62
2023/06/20 03:52:11;;;;;;;;;;;23.90;52.40;;;;;;5093619;28;19977;-61
2023/06/20 03:54:39;;;;;;;;;;;23.90;52.40;;;;;;5075551;28;19927;-61
2023/06/20 03:57:04;;;;;;;;;;;23.90;52.50;;;;;;5075689;28;19944;-61
2023/06/20 03:59:30;;;;;;;;;;;23.90;52.40;;;;;;5075402;28;19920;-61
2023/06/20 04:01:56;;;;;;;;;;;23.90;52.50;;;;;;5092511;28;20333;-62
2023/06/20 04:04:22;;;;;;;;;;;23.90;52.50;;;;;;5075510;28;19920;-61
2023/06/20 04:06:49;;;;;;;;;;;23.90;52.60;;;;;;5075457;28;19921;-61
2023/06/20 04:09:16;;;;;;;;;;;23.90;52.60;;;;;;5093354;28;19930;-61
2023/06/20 04:11:42;;;;;;;;;;;23.90;52.70;;;;;;5074676;28;19927;-61
2023/06/20 04:14:07;;;;;;;;;;;23.90;52.60;;;;;;5093302;28;19924;-61
2023/06/20 04:16:33;;;;;;;;;;;23.90;52.60;;;;;;5093162;28;20397;-61
2023/06/20 04:18:58;;;;;;;;;;;23.90;52.60;;;;;;5092203;28;19927;-62
2023/06/20 04:21:24;;;;;;;;;;;23.90;52.50;;;;;;5093322;28;19920;-61
2023/06/20 04:23:49;;;;;;;;;;;23.90;52.60;;;;;;5074839;28;20007;-62
2023/06/20 04:26:15;;;;;;;;;;;23.90;52.70;;;;;;5075068;28;19928;-61
2023/06/20 04:28:40;;;;;;;;;;;23.90;52.70;;;;;;5093086;28;19920;-61
2023/06/20 04:31:06;;;;;;;;;;;23.90;52.60;;;;;;5075191;28;20016;-61
2023/06/20 04:33:32;;;;;;;;;;;23.90;52.50;;;;;;5074814;28;19920;-61
2023/06/20 04:35:57;;;;;;;;;;;23.90;52.70;;;;;;5074647;28;19924;-61
2023/06/20 04:38:23;;;;;;;;;;;23.90;52.60;;;;;;5074676;28;19927;-62
2023/06/20 04:40:48;;;;;;;;;;;23.90;52.70;;;;;;5076319;28;19924;-61
2023/06/20 04:43:14;;;;;;;;;;;23.80;52.70;;;;;;5074613;28;19920;-61
2023/06/20 04:45:39;;;;;;;;;;;23.90;52.60;;;;;;5092898;28;19920;-61
2023/06/20 04:48:05;;;;;;;;;;;23.80;52.70;;;;;;5074340;28;19978;-61
2023/06/20 04:50:30;;;;;;;;;;;23.80;52.70;;;;;;5074763;28;19985;-61
2023/06/20 04:52:56;;;;;;;;;;;23.80;52.60;;;;;;5074529;28;19924;-61
2023/06/20 04:55:21;;;;;;;;;;;23.90;52.80;;;;;;5074927;28;19924;-61
2023/06/20 04:57:47;;;;;;;;;;;23.80;52.60;;;;;;5074402;28;20290;-62
2023/06/20 05:00:14;;;;;;;;;;;23.80;52.60;;;;;;5074892;28;19924;-61
2023/06/20 05:02:44;;;;;;;;;;;23.80;52.70;;;;;;5074411;28;19921;-64
2023/06/20 05:05:10;;;;;;;;;;;23.90;52.60;;;;;;5074730;28;19966;-61
2023/06/20 05:07:35;;;;;;;;;;;23.80;52.70;;;;;;5074366;28;19921;-61
2023/06/20 05:10:01;;;;;;;;;;;23.80;52.70;;;;;;5074669;28;19926;-62
2023/06/20 05:12:26;;;;;;;;;;;23.80;52.60;;;;;;5092154;28;19924;-61
2023/06/20 05:14:52;;;;;;;;;;;23.90;52.80;;;;;;5074314;28;19927;-62
2023/06/20 05:17:17;;;;;;;;;;;23.80;52.70;;;;;;5092381;28;19927;-62
2023/06/20 05:19:43;;;;;;;;;;;23.80;52.90;;;;;;5092811;28;20041;-61
2023/06/20 05:22:08;;;;;;;;;;;23.80;52.70;;;;;;5092310;28;19927;-61
2023/06/20 05:24:34;;;;;;;;;;;23.80;52.90;;;;;;5074172;28;19920;-61
2023/06/20 05:26:59;;;;;;;;;;;23.80;52.70;;;;;;5092312;28;19984;-61
2023/06/20 05:29:24;;;;;;;;;;;23.80;52.80;;;;;;5072089;28;20014;-62
2023/06/20 05:31:50;;;;;;;;;;;23.80;52.90;;;;;;5089097;28;19924;-62
2023/06/20 05:34:15;;;;;;;;;;;23.80;53.00;;;;;;5090443;28;20324;-63
2023/06/20 05:36:41;;;;;;;;;;;23.80;53.00;;;;;;5082271;28;19927;-62
2023/06/20 05:39:08;;;;;;;;;;;23.80;53.10;;;;;;5089721;28;19935;-61
2023/06/20 05:41:34;;;;;;;;;;;23.80;53.50;;;;;;5083643;28;19927;-60
2023/06/20 05:44:00;;;;;;;;;;;23.60;58.90;;;;;;5090294;28;20007;-60
2023/06/20 05:46:25;;;;;;;;;;;23.20;59.40;;;;;;5087755;28;19966;-60
2023/06/20 05:48:51;;;;;;;;;;;23.00;60.30;;;;;;5069907;28;19959;-60
2023/06/20 05:51:16;;;;;;;;;;;22.90;60.30;;;;;;5084508;28;20405;-60
2023/06/20 05:53:42;;;;;;;;;;;22.90;60.50;;;;;;5076298;28;19978;-60
2023/06/20 05:56:08;;;;;;;;;;;22.90;61.20;;;;;;5083853;28;19927;-60
2023/06/20 05:58:33;;;;;;;;;;;22.80;61.30;;;;;;5064146;28;20011;-60
2023/06/20 06:00:59;;;;;;;;;;;22.70;62.20;;;;;;5048830;28;20365;-59
2023/06/20 06:03:24;;;;;;;;;;;22.70;62.50;;;;;;5082090;28;20563;-61
2023/06/20 06:05:50;;;;;;;;;;;22.50;63.40;;;;;;5080271;28;19920;-60
2023/06/20 06:08:15;;;;;;;;;;;22.50;63.70;;;;;;5064154;28;20426;-60
2023/06/20 06:10:41;;;;;;;;;;;22.50;64.20;;;;;;5082270;28;19924;-60
2023/06/20 06:13:07;;;;;;;;;;;22.40;64.30;;;;;;5082636;28;19928;-61
2023/06/20 06:15:32;;;;;;;;;;;22.40;64.80;;;;;;5066359;28;20430;-61
2023/06/20 06:18:00;;;;;;;;;;;22.40;64.80;;;;;;5068543;28;19920;-60
2023/06/20 06:20:26;;;;;;;;;;;22.30;65.20;;;;;;5068335;28;19990;-61
2023/06/20 06:22:51;;;;;;;;;;;22.30;65.50;;;;;;5067461;28;20495;-61
2023/06/20 06:25:18;;;;;;;;;;;22.30;65.80;;;;;;5057883;28;19931;-65
2023/06/20 06:27:43;;;;;;;;;;;22.30;65.90;;;;;;5071148;28;20405;-62
2023/06/20 06:30:09;;;;;;;;;;;22.30;65.80;;;;;;5074568;28;19963;-63
2023/06/20 06:32:34;;;;;;;;;;;22.30;66.10;;;;;;5057740;28;19933;-62
2023/06/20 06:35:00;;;;;;;;;;;22.30;66.00;;;;;;5056527;28;19928;-62
2023/06/20 06:37:27;;;;;;;;;;;22.20;66.30;;;;;;5041534;28;19971;-69
2023/06/20 06:39:55;;;;;;;;;;;22.20;66.60;;;;;;5056921;28;20565;-62
2023/06/20 06:42:21;;;;;;;;;;;22.20;66.40;;;;;;5072100;28;19921;-62
2023/06/20 06:44:46;;;;;;;;;;;22.20;66.50;;;;;;5057251;28;19920;-69
2023/06/20 06:47:12;;;;;;;;;;;22.30;66.90;;;;;;5074440;28;19928;-61
2023/06/20 06:49:37;;;;;;;;;;;22.30;66.60;;;;;;5056719;28;20015;-61
2023/06/20 06:52:03;;;;;;;;;;;22.30;67.00;;;;;;5055875;28;19997;-60
2023/06/20 06:54:28;;;;;;;;;;;22.40;65.30;;;;;;5065255;28;20047;-60
2023/06/20 06:56:54;;;;;;;;;;;22.50;65.20;;;;;;5067224;28;19929;-60
2023/06/20 06:59:19;;;;;;;;;;;22.60;64.60;;;;;;5071463;28;19920;-62
2023/06/20 07:01:45;;;;;;;;;;;22.60;64.40;;;;;;5053851;28;20221;-61
2023/06/20 07:04:10;;;;;;;;;;;22.80;64.60;;;;;;5051050;28;19920;-62
2023/06/20 07:06:36;;;;;;;;;;;22.80;64.00;;;;;;5058715;28;19924;-59
2023/06/20 07:09:01;;;;;;;;;;;22.90;63.80;;;;;;5070274;28;20007;-60
2023/06/20 07:11:27;;;;;;;;;;;22.90;63.80;;;;;;5061431;28;19924;-59
2023/06/20 07:13:52;;;;;;;;;;;23.00;64.40;;;;;;5057292;28;20001;-59
2023/06/20 07:16:18;;;;;;;;;;;23.10;64.10;;;;;;5072355;28;19932;-61
2023/06/20 07:18:43;;;;;;;;;;;23.10;64.30;;;;;;5045719;28;20672;-60
2023/06/20 07:21:09;;;;;;;;;;;23.10;63.80;;;;;;5048968;28;19931;-60
2023/06/20 07:23:34;;;;;;;;;;;23.10;64.00;;;;;;5068977;28;20434;-63
2023/06/20 07:26:00;;;;;;;;;;;23.20;64.20;;;;;;5054491;28;19924;-59
2023/06/20 07:28:26;;;;;;;;;;;23.20;63.80;;;;;;5069777;28;20331;-60
2023/06/20 07:30:52;;;;;;;;;;;23.20;64.30;;;;;;5051378;28;19975;-60
2023/06/20 07:33:18;;;;;;;;;;;23.10;64.50;;;;;;5063122;28;20086;-61
2023/06/20 07:35:43;;;;;;;;;;;23.10;64.50;;;;;;5072938;28;20453;-63
2023/06/20 07:38:09;;;;;;;;;;;23.10;65.00;;;;;;5048657;28;19928;-61
2023/06/20 07:40:34;;;;;;;;;;;22.90;65.80;;;;;;5051200;28;19929;-59
2023/06/20 07:43:00;;;;;;;;;;;22.80;66.40;;;;;;5052463;28;19924;-62
2023/06/20 07:45:25;;;;;;;;;;;22.60;66.90;;;;;;5055808;28;20568;-61
2023/06/20 07:47:50;;;;;;;;;;;22.60;66.50;;;;;;5055682;28;19927;-60
2023/06/20 07:50:16;;;;;;;;;;;22.60;66.60;;;;;;5049894;28;20002;-62
2023/06/20 07:52:42;;;;;;;;;;;22.70;66.20;;;;;;5069666;28;19975;-62
2023/06/20 07:55:07;;;;;;;;;;;22.80;66.40;;;;;;5054563;28;19972;-61
2023/06/20 07:57:33;;;;;;;;;;;22.80;66.30;;;;;;5072389;28;20528;-61
2023/06/20 07:59:58;;;;;;;;;;;22.90;66.10;;;;;;5072874;28;19964;-62
2023/06/20 08:02:24;;;;;;;;;;;22.90;66.40;;;;;;5071497;28;19924;-61
2023/06/20 08:04:49;;;;;;;;;;;23.00;65.80;;;;;;5061337;28;20395;-61
2023/06/20 08:07:15;;;;;;;;;;;23.00;65.50;;;;;;5056224;28;20014;-62
2023/06/20 08:09:41;;;;;;;;;;;23.00;66.20;;;;;;5073777;28;19930;-60
2023/06/20 08:12:07;;;;;;;;;;;23.00;66.20;;;;;;5072188;28;19979;-60
2023/06/20 08:14:33;;;;;;;;;;;23.10;66.50;;;;;;5072514;28;20045;-60
2023/06/20 08:16:58;;;;;;;;;;;23.10;66.20;;;;;;5074619;28;20363;-60
2023/06/20 08:19:24;;;;;;;;;;;23.10;66.30;;;;;;5055304;28;19920;-59
2023/06/20 08:21:49;;;;;;;;;;;23.10;66.40;;;;;;5048312;28;19931;-63
2023/06/20 08:24:14;;;;;;;;;;;23.10;65.60;;;;;;5071879;28;19928;-61
2023/06/20 08:26:40;;;;;;;;;;;23.20;65.80;;;;;;5055305;28;20007;-61
2023/06/20 08:29:08;;;;;;;;;;;23.30;65.90;;;;;;5059510;28;19924;-59
2023/06/20 08:31:36;;;;;;;;;;;23.20;65.80;;;;;;5070078;28;19928;-60
2023/06/20 08:34:03;;;;;;;;;;;23.30;66.60;;;;;;5055837;28;19928;-61
2023/06/20 08:36:28;;;;;;;;;;;23.20;68.90;;;;;;5054151;28;20363;-61
2023/06/20 08:38:53;;;;;;;;;;;23.10;69.30;;;;;;5059790;28;19938;-61
2023/06/20 08:41:21;;;;;;;;;;;22.90;69.10;;;;;;5071410;28;19927;-62
2023/06/20 08:43:46;;;;;;;;;;;22.90;70.30;;;;;;5056248;28;19975;-61
2023/06/20 08:46:13;;;;;;;;;;;22.80;69.90;;;;;;5056637;28;19963;-61
2023/06/20 08:48:38;;;;;;;;;;;22.90;70.40;;;;;;5068512;28;20177;-61
2023/06/20 08:51:04;;;;;;;;;;;22.90;70.10;;;;;;5064659;28;19935;-61
2023/06/20 08:53:29;;;;;;;;;;;22.90;69.00;;;;;;5066193;28;20011;-61
2023/06/20 08:55:56;;;;;;;;;;;23.00;69.10;;;;;;5051550;28;19967;-60
2023/06/20 08:58:22;;;;;;;;;;;23.10;69.40;;;;;;5062485;28;19958;-60
2023/06/20 09:00:48;;;;;;;;;;;23.10;68.80;;;;;;5049196;28;19935;-61
2023/06/20 09:03:14;;;;;;;;;;;23.20;68.20;;;;;;5064045;28;19924;-60
2023/06/20 09:05:41;;;;;;;;;;;23.20;68.50;;;;;;5049119;28;19927;-62
2023/06/20 09:08:07;;;;;;;;;;;23.20;68.20;;;;;;5048718;28;19957;-60
2023/06/20 09:10:33;;;;;;;;;;;23.30;69.00;;;;;;5048210;28;20345;-60
2023/06/20 09:12:58;;;;;;;;;;;23.30;68.00;;;;;;5043605;28;20375;-60
2023/06/20 09:15:25;;;;;;;;;;;23.40;68.20;;;;;;5055781;28;19920;-61
2023/06/20 09:17:52;;;;;;;;;;;23.50;68.30;;;;;;5069253;28;20489;-59
2023/06/20 09:20:18;;;;;;;;;;;23.60;67.30;;;;;;5050190;28;19924;-60
2023/06/20 09:22:44;;;;;;;;;;;23.70;67.00;;;;;;5070709;28;19924;-60
2023/06/20 09:25:10;;;;;;;;;;;23.80;66.50;;;;;;5067889;28;19935;-60
2023/06/20 09:27:36;;;;;;;;;;;23.80;67.10;;;;;;5051018;28;20447;-60
2023/06/20 09:30:03;;;;;;;;;;;23.90;67.20;;;;;;5052370;28;19924;-60
2023/06/20 09:32:44;;;;;;;;;;;23.90;66.60;;;;;;5047761;28;20075;-60
2023/06/20 09:35:10;;;;;;;;;;;24.00;66.50;;;;;;5056493;28;19970;-60
2023/06/20 09:37:38;;;;;;;;;;;24.10;66.30;;;;;;5073993;28;19925;-61
2023/06/20 09:40:06;;;;;;;;;;;24.20;65.80;;;;;;5053975;28;19977;-59
2023/06/20 09:42:32;;;;;;;;;;;24.30;65.40;;;;;;5056657;28;20281;-59
2023/06/20 09:44:57;;;;;;;;;;;24.40;65.00;;;;;;5053300;28;20418;-60
2023/06/20 09:47:23;;;;;;;;;;;24.40;65.30;;;;;;5056450;28;19978;-60
2023/06/20 09:49:48;;;;;;;;;;;24.50;64.60;;;;;;5073231;28;19925;-60
2023/06/20 09:52:14;;;;;;;;;;;24.50;64.70;;;;;;5056350;28;19924;-60
2023/06/20 09:54:44;;;;;;;;;;;24.60;64.60;;;;;;5072961;28;19923;-60
2023/06/20 09:57:11;;;;;;;;;;;24.70;64.50;;;;;;5055674;28;19967;-60
2023/06/20 09:59:41;;;;;;;;;;;24.70;64.50;;;;;;5056419;28;19927;-61
2023/06/20 10:02:08;;;;;;;;;;;24.60;64.30;;;;;;5053935;28;19931;-60
2023/06/20 10:04:39;;;;;;;;;;;24.60;65.20;;;;;;5075082;28;19970;-60
2023/06/20 10:07:05;;;;;;;;;;;24.60;64.40;;;;;;5059809;28;19929;-59
2023/06/20 10:09:31;;;;;;;;;;;24.70;64.50;;;;;;5071967;28;19978;-61
2023/06/20 10:11:56;;;;;;;;;;;24.80;63.50;;;;;;5072310;28;19977;-61
2023/06/20 10:14:22;;;;;;;;;;;24.90;63.20;;;;;;5062875;28;19978;-60
2023/06/20 10:16:51;;;;;;;;;;;25.00;63.50;;;;;;5060702;28;19923;-60
2023/06/20 10:19:17;;;;;;;;;;;24.90;62.80;;;;;;5069859;28;20559;-61
2023/06/20 10:21:51;;;;;;;;;;;24.90;62.00;;;;;;5069109;28;20601;-60
2023/06/20 10:24:17;;;;;;;;;;;25.00;62.30;;;;;;5070996;28;20578;-61
2023/06/20 10:26:42;;;;;;;;;;;25.10;61.80;;;;;;5052911;28;19924;-60
2023/06/20 10:29:08;;;;;;;;;;;25.10;61.80;;;;;;5057510;28;19999;-62
2023/06/20 10:31:53;;;;;;;;;;;25.20;60.90;;;;;;5071719;28;19960;-61
2023/06/20 10:34:39;;;;;;;;;;;25.30;60.90;;;;;;5055495;28;19931;-63
2023/06/20 10:37:08;;;;;;;;;;;25.30;60.50;;;;;;5057585;28;20017;-63
2023/06/20 10:39:33;;;;;;;;;;;25.40;61.20;;;;;;5066677;28;20399;-63
2023/06/20 10:42:05;;;;;;;;;;;25.40;60.70;;;;;;5072461;28;19968;-63
2023/06/20 10:44:30;;;;;;;;;;;25.40;60.70;;;;;;5053162;28;20706;-63
2023/06/20 10:46:56;;;;;;;;;;;25.40;60.40;;;;;;5050859;28;19924;-63
2023/06/20 10:49:21;;;;;;;;;;;25.40;61.70;;;;;;5052616;28;19928;-60
2023/06/20 10:51:49;;;;;;;;;;;25.50;60.70;;;;;;5069400;28;20024;-61
2023/06/20 10:54:15;;;;;;;;;;;25.50;59.40;;;;;;5052491;28;20008;-60
2023/06/20 10:56:43;;;;;;;;;;;25.60;59.40;;;;;;5054545;28;19928;-60
2023/06/20 11:01:49;;;;;;;;;;;25.60;59.60;;;;;;5088452;27;19921;-61
2023/06/20 11:04:15;;;;;;;;;;;25.60;59.80;;;;;;5071934;28;19948;-61
2023/06/20 11:06:41;;;;;;;;;;;25.50;60.00;;;;;;5102523;28;20721;-61
2023/06/20 11:09:23;;;;;;;;;;;25.50;60.20;;;;;;5104483;28;19928;-60
2023/06/20 11:11:48;;;;;;;;;;;25.40;60.60;;;;;;5073236;28;19928;-62
2023/06/20 11:14:15;;;;;;;;;;;25.40;60.70;;;;;;5071793;28;20370;-60
2023/06/20 11:16:41;;;;;;;;;;;25.40;60.70;;;;;;5106764;28;19924;-61
2023/06/20 11:19:07;;;;;;;;;;;25.30;60.80;;;;;;5072359;28;19924;-61
2023/06/20 11:21:33;;;;;;;;;;;25.40;60.80;;;;;;5103780;28;19929;-64
2023/06/20 11:23:59;;;;;;;;;;;25.40;60.90;;;;;;5069859;28;20294;-62
2023/06/20 11:26:28;;;;;;;;;;;25.60;60.40;;;;;;5099561;28;19931;-61
2023/06/20 11:29:01;;;;;;;;;;;25.70;60.30;;;;;;5063909;28;19931;-60
2023/06/20 11:31:27;;;;;;;;;;;25.80;59.70;;;;;;5102476;28;19932;-60
2023/06/20 11:34:09;;;;;;;;;;;25.80;59.90;;;;;;5103124;28;19921;-60
2023/06/20 11:36:35;;;;;;;;;;;25.70;59.80;;;;;;5067986;28;19947;-60
2023/06/20 11:39:05;;;;;;;;;;;25.80;59.10;;;;;;5099258;28;19927;-61
2023/06/20 11:41:31;;;;;;;;;;;25.80;59.20;;;;;;5066840;28;19935;-61
2023/06/20 11:43:57;;;;;;;;;;;25.80;59.50;;;;;;5065271;28;19936;-60
2023/06/20 11:46:22;;;;;;;;;;;25.80;59.60;;;;;;5068752;28;19925;-62
2023/06/20 11:48:50;;;;;;;;;;;25.70;58.80;;;;;;5102681;28;20335;-61
2023/06/20 11:51:15;;;;;;;;;;;25.70;59.50;;;;;;5072988;28;19924;-61
2023/06/20 11:53:41;;;;;;;;;;;25.70;59.70;;;;;;5106705;28;19939;-62
2023/06/20 11:56:07;;;;;;;;;;;25.70;59.30;;;;;;5100811;28;19942;-64
2023/06/20 11:58:48;;;;;;;;;;;25.80;59.40;;;;;;5068044;28;19925;-61
2023/06/20 12:01:15;;;;;;;;;;;25.80;59.60;;;;;;5066169;28;20374;-61
2023/06/20 12:03:41;;;;;;;;;;;25.70;59.50;;;;;;5061354;28;20007;-61
2023/06/20 12:06:27;;;;;;;;;;;25.70;59.60;;;;;;5067400;28;19920;-61
2023/06/20 12:09:04;;;;;;;;;;;25.70;59.70;;;;;;5068230;28;20031;-61
2023/06/20 12:11:30;;;;;;;;;;;25.70;59.80;;;;;;5066382;28;19970;-62
2023/06/20 12:13:56;;;;;;;;;;;25.60;59.90;;;;;;5054481;28;19947;-61
2023/06/20 12:16:22;;;;;;;;;;;25.60;59.70;;;;;;5056435;28;19924;-61
2023/06/20 12:18:48;;;;;;;;;;;25.60;59.70;;;;;;5058434;28;20405;-62
2023/06/20 12:21:14;;;;;;;;;;;25.60;59.40;;;;;;5055760;28;19928;-62
2023/06/20 12:23:40;;;;;;;;;;;25.60;59.60;;;;;;5050749;28;19929;-61
2023/06/20 12:26:06;;;;;;;;;;;25.60;59.70;;;;;;5086509;28;20329;-61
2023/06/20 12:28:32;;;;;;;;;;;25.60;59.50;;;;;;5051116;28;19939;-61
2023/06/20 12:30:59;;;;;;;;;;;25.60;59.50;;;;;;5054460;28;19921;-60
2023/06/20 12:33:25;;;;;;;;;;;25.70;59.80;;;;;;5048981;28;19994;-61
2023/06/20 12:35:51;;;;;;;;;;;25.70;59.50;;;;;;5053958;28;19947;-61
2023/06/20 12:38:16;;;;;;;;;;;25.70;59.10;;;;;;5055451;28;19921;-62
2023/06/20 12:40:42;;;;;;;;;;;25.70;59.70;;;;;;5072343;28;19929;-61
2023/06/20 12:43:07;;;;;;;;;;;25.80;59.50;;;;;;5080607;28;20150;-61
2023/06/20 12:45:33;;;;;;;;;;;25.90;58.90;;;;;;5055949;28;20472;-62
2023/06/20 12:47:59;;;;;;;;;;;25.90;59.00;;;;;;5084437;28;20469;-61
2023/06/20 12:50:24;;;;;;;;;;;25.90;58.90;;;;;;5047590;28;19920;-61
2023/06/20 12:52:51;;;;;;;;;;;25.90;57.50;;;;;;5089900;28;19920;-61
2023/06/20 12:55:17;;;;;;;;;;;26.00;58.20;;;;;;5089735;28;19928;-62
2023/06/20 12:57:42;;;;;;;;;;;26.00;58.00;;;;;;5053112;28;20619;-60
2023/06/20 13:00:09;;;;;;;;;;;26.10;57.80;;;;;;5045567;28;19990;-60
2023/06/20 13:02:35;;;;;;;;;;;26.10;57.80;;;;;;5049884;28;19928;-61
2023/06/20 13:05:01;;;;;;;;;;;26.20;57.20;;;;;;5085353;28;19930;-61
2023/06/20 13:07:26;;;;;;;;;;;26.20;56.20;;;;;;5050381;28;19924;-60
2023/06/20 13:09:52;;;;;;;;;;;26.30;56.60;;;;;;5043891;28;19924;-61
2023/06/20 13:12:19;;;;;;;;;;;26.30;56.30;;;;;;5051050;28;19924;-62
2023/06/20 13:14:45;;;;;;;;;;;26.30;56.90;;;;;;5055699;28;19924;-61
2023/06/20 13:17:11;;;;;;;;;;;26.30;57.80;;;;;;5087566;28;20673;-61
2023/06/20 13:19:36;;;;;;;;;;;26.40;57.60;;;;;;5056818;28;19978;-62
2023/06/20 13:22:02;;;;;;;;;;;26.50;57.40;;;;;;5075026;28;19970;-61
2023/06/20 13:24:28;;;;;;;;;;;26.50;57.40;;;;;;5056063;28;20022;-62
2023/06/20 13:26:53;;;;;;;;;;;26.50;57.00;;;;;;5087634;28;20013;-61
2023/06/20 13:29:19;;;;;;;;;;;26.50;56.40;;;;;;5081917;28;20802;-61
2023/06/20 13:31:44;;;;;;;;;;;26.60;55.00;;;;;;5056650;28;19935;-61
2023/06/20 13:34:10;;;;;;;;;;;26.70;54.40;;;;;;5054632;28;19924;-61
2023/06/20 13:36:35;;;;;;;;;;;26.80;54.10;;;;;;5055984;28;19971;-62
2023/06/20 13:39:02;;;;;;;;;;;26.80;54.50;;;;;;5056838;28;19924;-61
2023/06/20 13:41:28;;;;;;;;;;;26.80;54.50;;;;;;5058602;28;20338;-61
2023/06/20 13:43:53;;;;;;;;;;;26.70;54.80;;;;;;5088003;28;19920;-62
2023/06/20 13:46:20;;;;;;;;;;;26.90;53.70;;;;;;5085208;28;20019;-61
2023/06/20 13:48:47;;;;;;;;;;;26.90;54.50;;;;;;5081378;28;20062;-61
2023/06/20 13:51:14;;;;;;;;;;;26.80;54.80;;;;;;5042657;28;19928;-62
2023/06/20 13:53:40;;;;;;;;;;;26.90;54.70;;;;;;5054872;28;20311;-61
2023/06/20 13:56:06;;;;;;;;;;;26.80;54.80;;;;;;5055173;28;19928;-62
2023/06/20 13:58:32;;;;;;;;;;;26.90;54.60;;;;;;5054711;28;20403;-62
2023/06/20 14:00:57;;;;;;;;;;;26.90;54.40;;;;;;5084751;28;20027;-61
2023/06/20 14:03:24;;;;;;;;;;;26.90;54.20;;;;;;5051852;28;20559;-63
2023/06/20 14:05:50;;;;;;;;;;;26.90;54.70;;;;;;5086174;28;20007;-64
2023/06/20 14:08:15;;;;;;;;;;;26.90;55.00;;;;;;5054524;28;20387;-63
2023/06/20 14:10:41;;;;;;;;;;;26.90;54.90;;;;;;5055218;28;19928;-62
2023/06/20 14:13:09;;;;;;;;;;;26.80;55.40;;;;;;5091260;28;19931;-61
2023/06/20 14:15:34;;;;;;;;;;;26.90;55.60;;;;;;5054535;28;20015;-61
2023/06/20 14:18:00;;;;;;;;;;;26.80;55.60;;;;;;5055516;28;19920;-62